Time;durP1;ratioP1;P1;durP2;ratioP2;P2;SDS_P1;SDS_P2;PMS_P1;PMS_P2;Temp;Humidity;BMP_temperature;BMP_pressure;BME280_temperature;BME280_humidity;BME280_pressure;Samples;Min_cycle;Max_cycle;Signal;HPM_P1;HPM_P2
2024/04/14 00:01:50;;;;;;;6.30;4.22;;;;;;;;;;5347056;26;20000;-78
2024/04/14 00:04:17;;;;;;;10.15;3.85;;;;;;;;;;5377018;26;20069;-77
2024/04/14 00:06:43;;;;;;;4.57;3.47;;;;;;;;;;5346340;26;20036;-77
2024/04/14 00:09:09;;;;;;;8.10;5.15;;;;;;;;;;5347284;26;20061;-76
2024/04/14 00:11:35;;;;;;;6.38;4.28;;;;;;;;;;5346466;26;20005;-75
2024/04/14 00:14:00;;;;;;;7.72;4.03;;;;;;;;;;5340256;26;20005;-77
2024/04/14 00:16:26;;;;;;;8.48;4.38;;;;;;;;;;5339828;26;20081;-77
2024/04/14 00:18:51;;;;;;;6.10;4.00;;;;;;;;;;5339707;26;20122;-77
2024/04/14 00:21:18;;;;;;;10.27;4.28;;;;;;;;;;5341408;26;19997;-78
2024/04/14 00:23:43;;;;;;;5.00;3.88;;;;;;;;;;5342543;26;20004;-78
2024/04/14 00:26:10;;;;;;;6.65;4.03;;;;;;;;;;5340212;26;20460;-73
2024/04/14 00:28:35;;;;;;;7.65;5.07;;;;;;;;;;5340187;26;20019;-73
2024/04/14 00:31:03;;;;;;;7.82;3.92;;;;;;;;;;5341705;26;20009;-73
2024/04/14 00:33:31;;;;;;;8.50;4.55;;;;;;;;;;5339931;26;20005;-74
2024/04/14 00:35:56;;;;;;;7.25;4.28;;;;;;;;;;5339398;26;20435;-73
2024/04/14 00:38:22;;;;;;;6.97;4.60;;;;;;;;;;5338281;26;20021;-73
2024/04/14 00:40:47;;;;;;;7.70;4.68;;;;;;;;;;5337680;26;20568;-73
2024/04/14 00:43:17;;;;;;;5.70;4.10;;;;;;;;;;5338274;26;20012;-77
2024/04/14 00:45:44;;;;;;;4.93;4.20;;;;;;;;;;5339520;26;20005;-77
2024/04/14 00:48:09;;;;;;;7.40;4.32;;;;;;;;;;5343553;26;20001;-77
2024/04/14 00:50:35;;;;;;;4.53;4.10;;;;;;;;;;5342063;26;20012;-77
2024/04/14 00:53:01;;;;;;;7.97;4.45;;;;;;;;;;5342857;26;20011;-77
2024/04/14 00:55:28;;;;;;;4.97;4.10;;;;;;;;;;5340767;26;20013;-78
2024/04/14 00:57:54;;;;;;;5.43;4.55;;;;;;;;;;5341924;26;20008;-76
2024/04/14 01:00:22;;;;;;;6.55;3.90;;;;;;;;;;5340331;26;20005;-78
2024/04/14 01:02:50;;;;;;;7.35;4.25;;;;;;;;;;5339415;26;20000;-77
2024/04/14 01:05:17;;;;;;;5.50;4.32;;;;;;;;;;5340852;26;20279;-76
2024/04/14 01:07:45;;;;;;;8.40;4.07;;;;;;;;;;5339296;26;20017;-78
2024/04/14 01:10:10;;;;;;;6.47;4.05;;;;;;;;;;5340788;26;20082;-78
2024/04/14 01:12:36;;;;;;;7.93;4.03;;;;;;;;;;5339008;26;20001;-77
2024/04/14 01:15:02;;;;;;;7.63;3.90;;;;;;;;;;5372405;26;20712;-76
2024/04/14 01:17:27;;;;;;;8.10;4.10;;;;;;;;;;5344945;26;20004;-76
2024/04/14 01:19:53;;;;;;;6.30;4.75;;;;;;;;;;5344794;26;20011;-76
2024/04/14 01:22:18;;;;;;;5.43;4.10;;;;;;;;;;5346318;26;20015;-78
2024/04/14 01:24:44;;;;;;;6.63;4.50;;;;;;;;;;5347165;26;20004;-77
2024/04/14 01:27:09;;;;;;;7.88;4.30;;;;;;;;;;5347719;26;20087;-77
2024/04/14 01:29:35;;;;;;;7.78;4.63;;;;;;;;;;5347200;26;20020;-76
2024/04/14 01:32:00;;;;;;;5.22;3.78;;;;;;;;;;5347343;26;20417;-77
2024/04/14 01:34:26;;;;;;;7.07;4.28;;;;;;;;;;5377883;26;20015;-78
2024/04/14 01:36:52;;;;;;;4.82;4.13;;;;;;;;;;5378869;26;20018;-77
2024/04/14 01:39:19;;;;;;;7.90;4.25;;;;;;;;;;5378343;26;20514;-77
2024/04/14 01:41:45;;;;;;;5.40;4.45;;;;;;;;;;5378507;26;20012;-78
2024/04/14 01:44:11;;;;;;;10.32;4.43;;;;;;;;;;5319010;26;20081;-77
2024/04/14 01:46:37;;;;;;;6.30;4.68;;;;;;;;;;5347863;26;20125;-77
2024/04/14 01:49:02;;;;;;;5.53;3.90;;;;;;;;;;5347904;26;20014;-77
2024/04/14 01:51:28;;;;;;;7.63;4.57;;;;;;;;;;5347307;26;19997;-77
2024/04/14 01:53:53;;;;;;;6.88;4.68;;;;;;;;;;5378522;26;20463;-77
2024/04/14 01:56:20;;;;;;;6.97;5.03;;;;;;;;;;5378481;26;20435;-77
2024/04/14 01:58:46;;;;;;;7.50;6.03;;;;;;;;;;5378264;26;20004;-78
2024/04/14 02:01:11;;;;;;;6.32;4.10;;;;;;;;;;5347976;26;20517;-76
2024/04/14 02:03:41;;;;;;;7.35;4.57;;;;;;;;;;5378009;26;20525;-78
2024/04/14 02:06:07;;;;;;;6.70;4.18;;;;;;;;;;5347800;26;20019;-77
2024/04/14 02:08:33;;;;;;;5.43;4.03;;;;;;;;;;5378571;26;20004;-78
2024/04/14 02:11:02;;;;;;;6.45;4.15;;;;;;;;;;5379866;26;20511;-77
2024/04/14 02:13:28;;;;;;;6.82;4.53;;;;;;;;;;5346477;26;20018;-77
2024/04/14 02:15:54;;;;;;;7.00;4.00;;;;;;;;;;5347486;26;20004;-77
2024/04/14 02:18:19;;;;;;;7.10;4.63;;;;;;;;;;5378827;26;20008;-76
2024/04/14 02:20:45;;;;;;;5.60;4.57;;;;;;;;;;5346930;26;20512;-76
2024/04/14 02:23:10;;;;;;;6.32;4.93;;;;;;;;;;5347001;26;20042;-77
2024/04/14 02:25:37;;;;;;;7.82;5.90;;;;;;;;;;5348532;26;20015;-77
2024/04/14 02:28:03;;;;;;;8.35;5.90;;;;;;;;;;5348031;26;20076;-77
2024/04/14 02:30:29;;;;;;;8.65;6.63;;;;;;;;;;5378867;26;20040;-77
2024/04/14 02:32:55;;;;;;;11.32;6.30;;;;;;;;;;5345757;26;20011;-77
2024/04/14 02:35:20;;;;;;;11.38;6.50;;;;;;;;;;5346327;26;20000;-77
2024/04/14 02:37:46;;;;;;;16.40;6.85;;;;;;;;;;5346311;26;20015;-76
2024/04/14 02:40:12;;;;;;;13.32;7.57;;;;;;;;;;5377374;26;20008;-77
2024/04/14 02:42:37;;;;;;;9.73;6.75;;;;;;;;;;5346589;26;20004;-77
2024/04/14 02:45:03;;;;;;;19.10;7.35;;;;;;;;;;5346278;26;20356;-77
2024/04/14 02:47:29;;;;;;;13.50;6.50;;;;;;;;;;5345906;26;20003;-78
2024/04/14 02:49:55;;;;;;;11.77;6.78;;;;;;;;;;5346266;26;20032;-78
2024/04/14 02:52:20;;;;;;;8.98;6.35;;;;;;;;;;5378246;26;20000;-78
2024/04/14 02:54:46;;;;;;;11.40;5.78;;;;;;;;;;5347372;26;20041;-78
2024/04/14 02:57:12;;;;;;;11.15;6.40;;;;;;;;;;5380444;26;20069;-77
2024/04/14 02:59:37;;;;;;;10.27;6.70;;;;;;;;;;5347533;26;20143;-79
2024/04/14 03:02:04;;;;;;;13.25;5.95;;;;;;;;;;5377419;26;20000;-77
2024/04/14 03:04:30;;;;;;;8.38;5.63;;;;;;;;;;5377921;26;20010;-78
2024/04/14 03:06:55;;;;;;;9.65;5.55;;;;;;;;;;5346625;26;19992;-77
2024/04/14 03:09:21;;;;;;;11.13;5.90;;;;;;;;;;5378798;26;20007;-78
2024/04/14 03:11:47;;;;;;;11.80;5.55;;;;;;;;;;5347084;26;19992;-76
2024/04/14 03:14:12;;;;;;;6.95;4.97;;;;;;;;;;5346256;26;20012;-76
2024/04/14 03:16:38;;;;;;;7.00;5.47;;;;;;;;;;5346892;26;20073;-77
2024/04/14 03:19:03;;;;;;;7.85;5.25;;;;;;;;;;5347060;26;20440;-79
2024/04/14 03:21:29;;;;;;;6.15;5.55;;;;;;;;;;5346886;26;20007;-76
2024/04/14 03:23:54;;;;;;;9.38;5.53;;;;;;;;;;5347006;26;19996;-77
2024/04/14 03:26:20;;;;;;;9.73;5.18;;;;;;;;;;5347513;26;20021;-76
2024/04/14 03:28:45;;;;;;;10.68;5.82;;;;;;;;;;5379066;26;20356;-77
2024/04/14 03:31:11;;;;;;;12.55;6.00;;;;;;;;;;5347678;26;20285;-77
2024/04/14 03:33:37;;;;;;;8.90;5.40;;;;;;;;;;5347271;26;19996;-77
2024/04/14 03:36:04;;;;;;;13.05;5.32;;;;;;;;;;5383701;26;19996;-78
2024/04/14 03:38:31;;;;;;;9.25;5.18;;;;;;;;;;5351606;26;20291;-77
2024/04/14 03:40:56;;;;;;;8.23;5.50;;;;;;;;;;5349149;26;20100;-76
2024/04/14 03:43:22;;;;;;;10.20;6.22;;;;;;;;;;5349854;26;20085;-78
2024/04/14 03:45:48;;;;;;;10.02;5.70;;;;;;;;;;5350705;26;20020;-77
2024/04/14 03:48:13;;;;;;;9.90;5.60;;;;;;;;;;5349203;26;19997;-76
2024/04/14 03:50:39;;;;;;;8.65;5.35;;;;;;;;;;5346851;26;19997;-76
2024/04/14 03:53:05;;;;;;;7.95;5.70;;;;;;;;;;5346764;26;20534;-77
2024/04/14 03:55:31;;;;;;;8.15;5.07;;;;;;;;;;5376448;26;20004;-76
2024/04/14 03:57:57;;;;;;;8.77;5.55;;;;;;;;;;5376470;26;20004;-77
2024/04/14 04:00:23;;;;;;;6.97;5.25;;;;;;;;;;5345243;26;19996;-76
2024/04/14 04:02:49;;;;;;;6.65;5.50;;;;;;;;;;5375596;26;20015;-77
2024/04/14 04:05:14;;;;;;;7.25;5.20;;;;;;;;;;5345277;26;20406;-77
2024/04/14 04:07:40;;;;;;;7.18;5.88;;;;;;;;;;5376541;26;19996;-76
2024/04/14 04:10:06;;;;;;;10.13;5.30;;;;;;;;;;5378062;26;19992;-78
2024/04/14 04:12:31;;;;;;;6.22;5.45;;;;;;;;;;5345270;26;19996;-77
2024/04/14 04:14:57;;;;;;;7.97;5.70;;;;;;;;;;5344839;26;20379;-77
2024/04/14 04:17:23;;;;;;;8.45;6.10;;;;;;;;;;5345008;26;20004;-76
2024/04/14 04:19:48;;;;;;;7.38;5.80;;;;;;;;;;5345607;26;20389;-78
2024/04/14 04:22:14;;;;;;;9.73;6.00;;;;;;;;;;5345131;26;20100;-76
2024/04/14 04:24:39;;;;;;;6.88;5.20;;;;;;;;;;5375322;26;20019;-78
2024/04/14 04:27:05;;;;;;;7.22;5.47;;;;;;;;;;5376697;26;20000;-77
2024/04/14 04:29:31;;;;;;;9.98;5.78;;;;;;;;;;5375777;26;19996;-77
2024/04/14 04:31:56;;;;;;;9.50;5.00;;;;;;;;;;5344605;26;20340;-77
2024/04/14 04:34:22;;;;;;;6.10;5.03;;;;;;;;;;5344110;26;20036;-77
2024/04/14 04:36:51;;;;;;;8.48;6.18;;;;;;;;;;5344055;26;20791;-76
2024/04/14 04:39:17;;;;;;;7.82;5.75;;;;;;;;;;5343965;26;20340;-78
2024/04/14 04:41:43;;;;;;;10.70;5.90;;;;;;;;;;5344176;26;20004;-76
2024/04/14 04:44:10;;;;;;;6.95;5.43;;;;;;;;;;5344047;26;20010;-76
2024/04/14 04:46:36;;;;;;;9.07;6.00;;;;;;;;;;5375303;26;20005;-77
2024/04/14 04:49:02;;;;;;;11.05;6.03;;;;;;;;;;5375136;26;20004;-78
2024/04/14 04:51:28;;;;;;;8.77;5.70;;;;;;;;;;5344145;26;20000;-78
2024/04/14 04:53:54;;;;;;;11.38;6.28;;;;;;;;;;5374656;26;19996;-73
2024/04/14 04:56:19;;;;;;;11.95;6.43;;;;;;;;;;5375587;26;20007;-72
2024/04/14 04:58:45;;;;;;;14.18;6.47;;;;;;;;;;5347479;26;20072;-74
2024/04/14 05:01:11;;;;;;;7.70;5.47;;;;;;;;;;5347810;26;20008;-73
2024/04/14 05:03:37;;;;;;;6.85;5.53;;;;;;;;;;5346853;26;20005;-74
2024/04/14 05:06:04;;;;;;;10.10;5.60;;;;;;;;;;5348221;26;20108;-74
2024/04/14 05:08:31;;;;;;;7.97;5.05;;;;;;;;;;5378950;26;20830;-73
2024/04/14 05:10:58;;;;;;;7.13;5.60;;;;;;;;;;5347518;26;20015;-73
2024/04/14 05:13:24;;;;;;;7.75;5.13;;;;;;;;;;5378811;26;20355;-73
2024/04/14 05:15:50;;;;;;;14.35;6.13;;;;;;;;;;5347684;26;20482;-72
2024/04/14 05:18:17;;;;;;;11.73;6.32;;;;;;;;;;5378623;26;20000;-73
2024/04/14 05:20:43;;;;;;;8.27;5.53;;;;;;;;;;5347305;26;20038;-73
2024/04/14 05:23:09;;;;;;;8.90;5.25;;;;;;;;;;5346965;26;20008;-73
2024/04/14 05:25:35;;;;;;;8.52;5.43;;;;;;;;;;5377790;26;20001;-72
2024/04/14 05:28:02;;;;;;;5.78;5.15;;;;;;;;;;5347473;26;20040;-74
2024/04/14 05:30:28;;;;;;;10.15;5.88;;;;;;;;;;5378015;26;20004;-73
2024/04/14 05:32:54;;;;;;;6.60;5.22;;;;;;;;;;5378076;26;20468;-74
2024/04/14 05:35:20;;;;;;;11.13;5.65;;;;;;;;;;5346889;26;20004;-73
2024/04/14 05:37:46;;;;;;;11.27;5.35;;;;;;;;;;5347465;26;20036;-73
2024/04/14 05:40:13;;;;;;;9.52;5.82;;;;;;;;;;5347863;26;20030;-75
2024/04/14 05:42:38;;;;;;;6.53;5.07;;;;;;;;;;5348079;26;20008;-73
2024/04/14 05:45:07;;;;;;;10.45;6.43;;;;;;;;;;5347705;26;20026;-73
2024/04/14 05:47:33;;;;;;;6.43;4.82;;;;;;;;;;5347751;26;20127;-73
2024/04/14 05:49:58;;;;;;;6.78;5.38;;;;;;;;;;5378490;26;20000;-73
2024/04/14 05:52:24;;;;;;;9.73;5.55;;;;;;;;;;5378452;26;20394;-73
2024/04/14 05:54:49;;;;;;;8.93;5.90;;;;;;;;;;5377537;26;20004;-73
2024/04/14 05:57:15;;;;;;;9.38;5.15;;;;;;;;;;5347030;26;20011;-74
2024/04/14 05:59:41;;;;;;;9.88;5.28;;;;;;;;;;5378135;26;20069;-73
2024/04/14 06:02:06;;;;;;;7.55;5.20;;;;;;;;;;5348002;26;20000;-73
2024/04/14 06:04:32;;;;;;;5.28;4.57;;;;;;;;;;5379775;26;20331;-73
2024/04/14 06:06:57;;;;;;;6.38;5.45;;;;;;;;;;5380239;26;20015;-73
2024/04/14 06:09:24;;;;;;;11.50;5.22;;;;;;;;;;5380260;26;20012;-74
2024/04/14 06:11:50;;;;;;;6.43;4.75;;;;;;;;;;5377843;26;19997;-73
2024/04/14 06:14:15;;;;;;;10.60;5.50;;;;;;;;;;5377767;26;20372;-73
2024/04/14 06:16:41;;;;;;;9.73;4.80;;;;;;;;;;5378043;26;20004;-73
2024/04/14 06:19:07;;;;;;;6.28;5.43;;;;;;;;;;5350374;26;20019;-76
2024/04/14 06:21:32;;;;;;;7.10;5.03;;;;;;;;;;5347456;26;20004;-76
2024/04/14 06:23:58;;;;;;;6.55;4.95;;;;;;;;;;5346246;26;20320;-75
2024/04/14 06:26:23;;;;;;;7.38;4.60;;;;;;;;;;5347174;26;20004;-76
2024/04/14 06:28:49;;;;;;;6.97;4.97;;;;;;;;;;5346303;26;20015;-77
2024/04/14 06:31:14;;;;;;;9.50;4.78;;;;;;;;;;5346732;26;20078;-76
2024/04/14 06:33:40;;;;;;;12.50;5.72;;;;;;;;;;5345765;26;20102;-76
2024/04/14 06:36:06;;;;;;;9.50;4.53;;;;;;;;;;5346330;26;20284;-77
2024/04/14 06:38:32;;;;;;;7.30;5.13;;;;;;;;;;5376920;26;20361;-78
2024/04/14 06:40:58;;;;;;;5.10;4.35;;;;;;;;;;5377555;26;20019;-75
2024/04/14 06:43:23;;;;;;;8.07;4.15;;;;;;;;;;5346876;26;20011;-76
2024/04/14 06:45:53;;;;;;;5.95;4.38;;;;;;;;;;5347092;26;20004;-75
2024/04/14 06:48:22;;;;;;;4.45;4.00;;;;;;;;;;5347115;26;20082;-76
2024/04/14 06:50:47;;;;;;;6.40;4.85;;;;;;;;;;5346522;26;20000;-75
2024/04/14 06:53:14;;;;;;;5.57;4.05;;;;;;;;;;5377601;26;20127;-73
2024/04/14 06:55:42;;;;;;;6.70;3.92;;;;;;;;;;5345864;26;20028;-73
2024/04/14 06:58:07;;;;;;;4.82;3.38;;;;;;;;;;5346117;26;20008;-74
2024/04/14 07:00:33;;;;;;;4.47;3.75;;;;;;;;;;5376865;26;20032;-73
2024/04/14 07:02:59;;;;;;;3.65;3.30;;;;;;;;;;5345567;26;20008;-73
2024/04/14 07:05:24;;;;;;;6.13;3.60;;;;;;;;;;5345662;26;20004;-73
2024/04/14 07:07:51;;;;;;;8.57;3.70;;;;;;;;;;5345425;26;20000;-72
2024/04/14 07:10:19;;;;;;;4.68;2.85;;;;;;;;;;5376589;26;20015;-74
2024/04/14 07:12:45;;;;;;;7.78;3.33;;;;;;;;;;5345613;26;20593;-73
2024/04/14 07:15:10;;;;;;;5.20;3.28;;;;;;;;;;5340256;26;20005;-74
2024/04/14 07:17:36;;;;;;;4.05;3.03;;;;;;;;;;5339843;26;20480;-72
2024/04/14 07:20:03;;;;;;;3.83;2.47;;;;;;;;;;5338730;26;20783;-72
2024/04/14 07:22:28;;;;;;;2.67;2.45;;;;;;;;;;5339556;26;20019;-72
2024/04/14 07:24:54;;;;;;;4.90;2.88;;;;;;;;;;5341843;26;20401;-71
2024/04/14 07:27:19;;;;;;;11.50;3.08;;;;;;;;;;5341752;26;20422;-71
2024/04/14 07:29:45;;;;;;;4.28;2.80;;;;;;;;;;5339612;26;19997;-73
2024/04/14 07:32:11;;;;;;;3.03;2.47;;;;;;;;;;5339807;26;20012;-72
2024/04/14 07:34:37;;;;;;;5.18;2.50;;;;;;;;;;5339420;26;20005;-72
2024/04/14 07:37:04;;;;;;;3.75;2.50;;;;;;;;;;5340943;26;20019;-72
2024/04/14 07:39:30;;;;;;;4.10;2.90;;;;;;;;;;5341180;26;20034;-74
2024/04/14 07:41:57;;;;;;;4.78;2.90;;;;;;;;;;5339376;26;20035;-72
2024/04/14 07:44:23;;;;;;;4.07;2.45;;;;;;;;;;5341110;26;20005;-71
2024/04/14 07:46:49;;;;;;;4.97;2.85;;;;;;;;;;5339214;26;20015;-71
2024/04/14 07:49:15;;;;;;;4.72;3.22;;;;;;;;;;5338884;26;20017;-72
2024/04/14 07:51:40;;;;;;;5.88;3.00;;;;;;;;;;5341426;26;20858;-73
2024/04/14 07:54:06;;;;;;;4.97;2.78;;;;;;;;;;5339576;26;20030;-74
2024/04/14 07:56:32;;;;;;;3.38;2.65;;;;;;;;;;5341348;26;20005;-71
2024/04/14 07:58:59;;;;;;;6.35;2.85;;;;;;;;;;5338817;26;20459;-71
2024/04/14 08:01:26;;;;;;;4.32;2.60;;;;;;;;;;5339239;26;20013;-72
2024/04/14 08:03:53;;;;;;;3.63;2.35;;;;;;;;;;5339265;26;20013;-73
2024/04/14 08:06:19;;;;;;;3.20;2.90;;;;;;;;;;5339311;26;20535;-71
2024/04/14 08:08:44;;;;;;;3.28;2.78;;;;;;;;;;5338994;26;20016;-73
2024/04/14 08:11:11;;;;;;;5.35;2.65;;;;;;;;;;5341057;26;20001;-73
2024/04/14 08:13:39;;;;;;;4.68;2.42;;;;;;;;;;5351833;26;20000;-72
2024/04/14 08:16:06;;;;;;;4.47;2.53;;;;;;;;;;5344416;26;20010;-72
2024/04/14 08:18:32;;;;;;;5.03;2.40;;;;;;;;;;5344728;26;20015;-72
2024/04/14 08:21:02;;;;;;;3.28;2.25;;;;;;;;;;5374899;26;20390;-73
2024/04/14 08:23:28;;;;;;;3.35;2.20;;;;;;;;;;5345325;26;19996;-71
2024/04/14 08:25:55;;;;;;;3.88;2.00;;;;;;;;;;5375328;26;20077;-72
2024/04/14 08:28:21;;;;;;;3.35;2.42;;;;;;;;;;5345052;26;20820;-72
2024/04/14 08:30:48;;;;;;;6.03;2.30;;;;;;;;;;5343384;26;20020;-71
2024/04/14 08:33:13;;;;;;;4.32;2.20;;;;;;;;;;5375355;26;20032;-72
2024/04/14 08:35:39;;;;;;;4.20;1.90;;;;;;;;;;5344547;26;20004;-72
2024/04/14 08:38:05;;;;;;;3.58;2.42;;;;;;;;;;5344960;26;20000;-72
2024/04/14 08:40:30;;;;;;;4.70;2.22;;;;;;;;;;5377322;26;20345;-71
2024/04/14 08:42:56;;;;;;;2.83;2.33;;;;;;;;;;5345389;26;20394;-72
2024/04/14 08:45:22;;;;;;;10.25;2.10;;;;;;;;;;5375333;26;20493;-73
2024/04/14 08:47:55;;;;;;;5.45;2.10;;;;;;;;;;5344548;26;20000;-72
2024/04/14 08:50:22;;;;;;;5.53;2.85;;;;;;;;;;5344651;26;20004;-72
2024/04/14 08:52:48;;;;;;;5.70;2.30;;;;;;;;;;5344440;26;20334;-71
2024/04/14 08:55:14;;;;;;;4.88;2.22;;;;;;;;;;5344572;26;20039;-71
2024/04/14 08:57:41;;;;;;;5.35;2.35;;;;;;;;;;5344846;26;20019;-71
2024/04/14 09:00:18;;;;;;;2.45;1.75;;;;;;;;;;5344615;26;20004;-72
2024/04/14 09:02:45;;;;;;;3.15;1.98;;;;;;;;;;5345503;26;20000;-72
2024/04/14 09:05:12;;;;;;;4.53;2.10;;;;;;;;;;5345240;26;20012;-72
2024/04/14 09:07:39;;;;;;;2.28;1.83;;;;;;;;;;5344810;26;20016;-72
2024/04/14 09:10:05;;;;;;;2.95;2.33;;;;;;;;;;5343952;26;20066;-73
2024/04/14 09:12:31;;;;;;;3.47;2.00;;;;;;;;;;5344300;26;20008;-71
2024/04/14 09:14:57;;;;;;;3.30;2.47;;;;;;;;;;5343335;26;20005;-70
2024/04/14 09:17:23;;;;;;;3.92;2.42;;;;;;;;;;5343627;26;20339;-72
2024/04/14 09:19:49;;;;;;;5.00;2.03;;;;;;;;;;5344085;26;20018;-70
2024/04/14 09:22:15;;;;;;;6.22;2.63;;;;;;;;;;5375277;26;20023;-71
2024/04/14 09:24:40;;;;;;;4.97;2.38;;;;;;;;;;5374671;26;20000;-71
2024/04/14 09:27:06;;;;;;;2.03;1.83;;;;;;;;;;5374300;26;20032;-73
2024/04/14 09:29:32;;;;;;;5.10;2.05;;;;;;;;;;5374436;26;20343;-72
2024/04/14 09:31:58;;;;;;;2.30;2.10;;;;;;;;;;5343021;26;20082;-72
2024/04/14 09:34:23;;;;;;;8.50;2.40;;;;;;;;;;5374111;26;20016;-72
2024/04/14 09:36:49;;;;;;;3.38;1.75;;;;;;;;;;5373794;26;20091;-73
2024/04/14 09:39:18;;;;;;;3.33;2.17;;;;;;;;;;5374804;26;20462;-72
2024/04/14 09:41:44;;;;;;;3.05;1.67;;;;;;;;;;5374156;26;20015;-73
2024/04/14 09:44:11;;;;;;;2.22;1.88;;;;;;;;;;5346053;26;20008;-71
2024/04/14 09:46:38;;;;;;;3.00;2.42;;;;;;;;;;5346732;26;20432;-71
2024/04/14 09:49:07;;;;;;;2.85;1.70;;;;;;;;;;5377772;26;20019;-73
2024/04/14 09:51:34;;;;;;;3.35;1.83;;;;;;;;;;5346659;26;20658;-72
2024/04/14 09:54:02;;;;;;;2.17;1.75;;;;;;;;;;5346548;26;20459;-73
2024/04/14 09:56:28;;;;;;;2.03;1.63;;;;;;;;;;5346543;26;20078;-72
2024/04/14 09:58:54;;;;;;;2.00;1.50;;;;;;;;;;5346773;26;20566;-73
2024/04/14 10:01:29;;;;;;;1.95;1.75;;;;;;;;;;5346511;26;20000;-75
2024/04/14 10:04:00;;;;;;;3.15;1.80;;;;;;;;;;5346371;26;20638;-74
2024/04/14 10:06:27;;;;;;;3.20;1.88;;;;;;;;;;5318356;26;20016;-73
2024/04/14 10:08:53;;;;;;;2.92;1.70;;;;;;;;;;5377019;26;20019;-73
2024/04/14 10:11:19;;;;;;;2.45;2.25;;;;;;;;;;5345982;26;20452;-74
2024/04/14 10:13:53;;;;;;;2.88;1.75;;;;;;;;;;5345792;26;20010;-74
2024/04/14 10:16:21;;;;;;;4.05;1.92;;;;;;;;;;5356754;26;20000;-73
2024/04/14 10:18:47;;;;;;;3.60;1.95;;;;;;;;;;5346996;26;20000;-73
2024/04/14 10:21:17;;;;;;;3.42;2.10;;;;;;;;;;5377568;26;20409;-74
2024/04/14 10:23:46;;;;;;;3.75;1.95;;;;;;;;;;5377639;26;20004;-74
2024/04/14 10:26:16;;;;;;;2.58;1.95;;;;;;;;;;5346572;26;20696;-74
2024/04/14 10:28:53;;;;;;;10.52;2.17;;;;;;;;;;5377102;26;20004;-72
2024/04/14 10:31:34;;;;;;;3.22;1.80;;;;;;;;;;5377273;26;20014;-74
2024/04/14 10:34:08;;;;;;;3.50;1.85;;;;;;;;;;5346279;26;20070;-73
2024/04/14 10:36:34;;;;;;;4.85;1.92;;;;;;;;;;5345988;26;20000;-73
2024/04/14 10:39:01;;;;;;;3.70;1.70;;;;;;;;;;5345630;26;20000;-72
2024/04/14 10:41:28;;;;;;;5.50;2.05;;;;;;;;;;5317556;26;19996;-73
2024/04/14 10:43:53;;;;;;;3.20;1.92;;;;;;;;;;5376685;26;20081;-74
2024/04/14 10:46:20;;;;;;;2.15;1.80;;;;;;;;;;5346088;26;20423;-73
2024/04/14 10:48:47;;;;;;;3.90;1.83;;;;;;;;;;5377012;26;20074;-71
2024/04/14 10:51:13;;;;;;;2.00;1.60;;;;;;;;;;5345673;26;20008;-73
2024/04/14 10:53:41;;;;;;;4.88;1.90;;;;;;;;;;5345489;26;20040;-72
2024/04/14 10:56:07;;;;;;;3.42;1.70;;;;;;;;;;5316720;26;20015;-73
2024/04/14 10:58:36;;;;;;;2.70;1.60;;;;;;;;;;5345895;26;20012;-73
2024/04/14 11:01:03;;;;;;;1.42;1.17;;;;;;;;;;5345795;26;20000;-72
2024/04/14 11:03:29;;;;;;;1.70;1.60;;;;;;;;;;5345833;26;20000;-73
2024/04/14 11:05:55;;;;;;;1.60;1.20;;;;;;;;;;5345482;26;20032;-73
2024/04/14 11:08:23;;;;;;;2.08;1.20;;;;;;;;;;5346011;26;20335;-74
2024/04/14 11:10:52;;;;;;;3.17;1.25;;;;;;;;;;5346129;26;20472;-73
2024/04/14 11:13:25;;;;;;;2.03;1.33;;;;;;;;;;5345573;26;20015;-72
2024/04/14 11:15:55;;;;;;;2.10;1.40;;;;;;;;;;5317410;26;20004;-74
2024/04/14 11:18:25;;;;;;;2.35;1.38;;;;;;;;;;5345923;26;20011;-72
2024/04/14 11:20:51;;;;;;;4.05;1.17;;;;;;;;;;5345449;26;20301;-73
2024/04/14 11:23:17;;;;;;;2.15;1.48;;;;;;;;;;5375819;26;20012;-74
2024/04/14 11:25:44;;;;;;;3.97;1.42;;;;;;;;;;5376352;26;20038;-73
2024/04/14 11:28:10;;;;;;;3.25;1.27;;;;;;;;;;5345212;26;20038;-74
2024/04/14 11:30:36;;;;;;;2.28;1.20;;;;;;;;;;5345788;26;20368;-71
2024/04/14 11:33:04;;;;;;;9.38;1.10;;;;;;;;;;5345314;26;20019;-73
2024/04/14 11:35:31;;;;;;;1.75;1.30;;;;;;;;;;5376193;26;20077;-72
2024/04/14 11:37:56;;;;;;;1.38;1.10;;;;;;;;;;5375813;26;20004;-73
2024/04/14 11:40:23;;;;;;;1.95;0.70;;;;;;;;;;5376059;26;20004;-72
2024/04/14 11:42:49;;;;;;;2.03;0.57;;;;;;;;;;5345283;26;20027;-73
2024/04/14 11:45:15;;;;;;;1.13;0.60;;;;;;;;;;5375700;26;20185;-74
2024/04/14 11:47:41;;;;;;;1.73;0.98;;;;;;;;;;5344929;26;20119;-73
2024/04/14 11:50:11;;;;;;;1.58;0.70;;;;;;;;;;5344668;26;20016;-73
2024/04/14 11:52:37;;;;;;;0.83;0.83;;;;;;;;;;5316519;26;20015;-72
2024/04/14 11:55:04;;;;;;;4.32;0.60;;;;;;;;;;5375234;26;20000;-72
2024/04/14 11:57:30;;;;;;;1.30;0.60;;;;;;;;;;5375903;26;20008;-72
2024/04/14 11:59:55;;;;;;;0.63;0.63;;;;;;;;;;5344851;26;20019;-74
2024/04/14 12:02:21;;;;;;;1.00;0.70;;;;;;;;;;5376191;26;20332;-71
2024/04/14 12:04:51;;;;;;;3.28;0.50;;;;;;;;;;5345379;26;20775;-74
2024/04/14 12:07:17;;;;;;;1.40;0.50;;;;;;;;;;5375912;26;20059;-73
2024/04/14 12:09:43;;;;;;;3.22;0.40;;;;;;;;;;5374629;26;20000;-74
2024/04/14 12:12:09;;;;;;;2.22;0.40;;;;;;;;;;5344239;26;20011;-72
2024/04/14 12:14:34;;;;;;;2.78;0.47;;;;;;;;;;5338963;26;20009;-74
2024/04/14 12:17:00;;;;;;;0.60;0.45;;;;;;;;;;5340499;26;20012;-73
2024/04/14 12:19:26;;;;;;;1.23;0.40;;;;;;;;;;5339023;26;20016;-72
2024/04/14 12:21:52;;;;;;;2.90;0.50;;;;;;;;;;5339219;26;20009;-72
2024/04/14 12:24:18;;;;;;;1.88;0.35;;;;;;;;;;5339190;26;20013;-73
2024/04/14 12:26:47;;;;;;;6.78;0.52;;;;;;;;;;5339401;26;20008;-72
2024/04/14 12:29:12;;;;;;;2.17;0.43;;;;;;;;;;5340553;26;20800;-72
2024/04/14 12:31:38;;;;;;;0.75;0.40;;;;;;;;;;5339555;26;20001;-73
2024/04/14 12:34:03;;;;;;;3.22;0.90;;;;;;;;;;5341331;26;20016;-72
2024/04/14 12:36:29;;;;;;;0.93;0.60;;;;;;;;;;5341669;26;20448;-73
2024/04/14 12:38:55;;;;;;;1.05;0.70;;;;;;;;;;5340382;26;20008;-73
2024/04/14 12:41:22;;;;;;;2.05;1.02;;;;;;;;;;5340633;26;19997;-73
2024/04/14 12:43:48;;;;;;;1.40;0.63;;;;;;;;;;5339939;26;19993;-73
2024/04/14 12:46:13;;;;;;;0.80;0.70;;;;;;;;;;5340646;26;20004;-73
2024/04/14 12:48:43;;;;;;;0.88;0.63;;;;;;;;;;5342133;26;20325;-72
2024/04/14 12:51:09;;;;;;;0.70;0.70;;;;;;;;;;5340386;26;20013;-75
2024/04/14 12:53:35;;;;;;;3.60;0.70;;;;;;;;;;5341873;26;20044;-73
2024/04/14 12:56:01;;;;;;;4.60;1.10;;;;;;;;;;5341400;26;20456;-72
2024/04/14 12:58:27;;;;;;;1.90;0.60;;;;;;;;;;5338849;26;20000;-74
2024/04/14 13:00:56;;;;;;;0.85;0.80;;;;;;;;;;5338751;26;20013;-73
2024/04/14 13:03:22;;;;;;;1.73;0.68;;;;;;;;;;5338339;26;20001;-72
2024/04/14 13:05:48;;;;;;;5.57;0.68;;;;;;;;;;5340452;26;20080;-73
2024/04/14 13:08:14;;;;;;;0.52;0.52;;;;;;;;;;5309857;26;20001;-74
2024/04/14 13:10:40;;;;;;;0.93;0.82;;;;;;;;;;5338686;26;20020;-73
2024/04/14 13:13:05;;;;;;;3.70;0.60;;;;;;;;;;5312296;26;20008;-73
2024/04/14 13:15:31;;;;;;;9.75;0.85;;;;;;;;;;5375211;26;20077;-74
2024/04/14 13:17:57;;;;;;;2.85;0.60;;;;;;;;;;5345357;26;20011;-74
2024/04/14 13:20:23;;;;;;;1.92;0.60;;;;;;;;;;5346960;26;20032;-73
2024/04/14 13:22:48;;;;;;;2.95;0.80;;;;;;;;;;5347384;26;20534;-74
2024/04/14 13:25:14;;;;;;;7.15;0.75;;;;;;;;;;5377573;26;20016;-74
2024/04/14 13:27:39;;;;;;;1.00;0.70;;;;;;;;;;5378186;26;20004;-73
2024/04/14 13:30:05;;;;;;;2.83;0.55;;;;;;;;;;5347576;26;20321;-73
2024/04/14 13:32:31;;;;;;;0.70;0.60;;;;;;;;;;5376762;26;20065;-73
2024/04/14 13:34:56;;;;;;;0.80;0.40;;;;;;;;;;5347818;26;20004;-74
2024/04/14 13:37:22;;;;;;;2.67;0.50;;;;;;;;;;5347714;26;20000;-74
2024/04/14 13:39:48;;;;;;;1.30;0.40;;;;;;;;;;5347951;26;20000;-74
2024/04/14 13:42:15;;;;;;;0.52;0.50;;;;;;;;;;5347454;26;20014;-74
2024/04/14 13:44:42;;;;;;;1.75;0.73;;;;;;;;;;5347001;26;19996;-75
2024/04/14 13:47:08;;;;;;;2.53;0.70;;;;;;;;;;5346774;26;19992;-74
2024/04/14 13:49:34;;;;;;;1.85;0.70;;;;;;;;;;5376339;26;20016;-76
2024/04/14 13:52:00;;;;;;;1.58;0.90;;;;;;;;;;5347570;26;20831;-75
2024/04/14 13:54:27;;;;;;;1.10;0.70;;;;;;;;;;5347274;26;19996;-75
2024/04/14 13:56:54;;;;;;;1.63;0.80;;;;;;;;;;5378377;26;20000;-75
2024/04/14 13:59:20;;;;;;;0.63;0.50;;;;;;;;;;5348051;26;20028;-76
2024/04/14 14:01:45;;;;;;;1.65;0.60;;;;;;;;;;5379253;26;20083;-75
2024/04/14 14:04:11;;;;;;;1.92;0.68;;;;;;;;;;5378540;26;20428;-76
2024/04/14 14:06:38;;;;;;;1.23;0.60;;;;;;;;;;5347479;26;20499;-75
2024/04/14 14:09:04;;;;;;;1.02;0.68;;;;;;;;;;5347591;26;20024;-76
2024/04/14 14:11:31;;;;;;;1.58;0.70;;;;;;;;;;5347511;26;20821;-73
2024/04/14 14:13:58;;;;;;;1.65;0.60;;;;;;;;;;5341951;26;20005;-74
2024/04/14 14:16:24;;;;;;;2.72;0.50;;;;;;;;;;5340980;26;20016;-76
2024/04/14 14:18:49;;;;;;;0.70;0.70;;;;;;;;;;5342200;26;20008;-75
2024/04/14 14:21:15;;;;;;;1.30;0.70;;;;;;;;;;5342006;26;20421;-75
2024/04/14 14:23:40;;;;;;;1.55;0.75;;;;;;;;;;5341335;26;20071;-74
2024/04/14 14:26:06;;;;;;;2.83;0.40;;;;;;;;;;5340746;26;20333;-75
2024/04/14 14:28:32;;;;;;;4.78;0.85;;;;;;;;;;5340814;26;19997;-75
2024/04/14 14:30:58;;;;;;;5.47;0.93;;;;;;;;;;5342797;26;20033;-76
2024/04/14 14:38:51;;;;;;;1.90;0.65;;;;;;;;;;5342734;26;20015;-75
2024/04/14 14:41:17;;;;;;;1.05;0.73;;;;;;;;;;5340719;26;19997;-75